Terminal Aerodrome Forecast
Issued by NWS Omaha/Valley, NE

Home | Current Version | Previous Version | Text Only | Print | Product List | Glossary On
Versions: 1 2 3 4 5 6 7 8 9 10 11 12 13 14 15 16 17 18 19 20 21 22 23 24 25 26 27 28 29 30 31 32 33 34
000
FTUS43 KOAX 240903 AAB
TAFOFK
TAF AMD
KOFK 240903Z 2409/2506 01015G25KT 2SM -SN BLSN SCT008 OVC015
      TEMPO 2409/2411 1SM -SN BLSN OVC008
     FM241800 34021G29KT 3SM -SN BLSN OVC015
     FM242000 34019G27KT 5SM BLSN OVC020
     FM250000 34013KT P6SM SCT035=

USA.gov is the U.S. government's official web portal to all federal, state and local government web resources and services.